Oski — WYD3004 — position and weather

sailwx.info

Track history (hours):
 
Tides and Currents Weather Stations Pressure Air Temp Water Temp Dewpoint Dewpoint Depression Visibility Wind Speed Wind Dir Waves Ship Positions

Oski

Owner: BLUE & GOLD FLEET, SAN FRANCISCO, CA. More information available from US FCC via Universal Licensing System and Coast Guard Vessel Documentation Center.

Last reported at 2017-Jan-19 00:33 UTC. Time now 2017-Jan-23 00:31 UTC.
Position N 37°49' W 122°25'.

Length 24 m; draft 2 m.

Type: Passenger vessel. MMSI: 366985320.

Date/timePositionNaut miles runAvg speedWind from/ knotsBaromVisibWave heightAir tempDewpointWater temp
2017-Jan-19 00:33N 37°49' W 122°25'3 3.2
2017-Jan-18 23:33N 37°48' W 122°21'3 2.6
2017-Jan-18 22:34N 37°47' W 122°17'2 2.2
2017-Jan-18 21:33N 37°48' W 122°20'2 2.2
2017-Jan-18 20:33N 37°47' W 122°17'0 0.0
2017-Jan-18 19:33N 37°47' W 122°17'0 0.0
2017-Jan-18 18:30N 37°47' W 122°17'0 0.0
2017-Jan-18 17:27N 37°47' W 122°17'0 0.0
2017-Jan-18 16:31N 37°47' W 122°17'0 0.0
2017-Jan-18 15:32N 37°47' W 122°17'0 0.0
2017-Jan-18 14:23N 37°47' W 122°17'0 0.0
2017-Jan-18 13:24N 37°47' W 122°17'0 0.0
2017-Jan-18 12:30N 37°47' W 122°17'0 0.0
2017-Jan-18 11:27N 37°47' W 122°17'0 0.0
2017-Jan-18 10:32N 37°47' W 122°17'0 0.0
2017-Jan-18 09:31N 37°47' W 122°17'0 0.0
2017-Jan-18 08:32N 37°47' W 122°17'0 0.0
2017-Jan-18 07:31N 37°47' W 122°17'0 0.0
2017-Jan-18 06:31N 37°47' W 122°17'0 0.0
2017-Jan-18 05:33N 37°47' W 122°17'0 0.0
2017-Jan-18 04:28N 37°47' W 122°17'0 0.0
2017-Jan-18 03:33N 37°47' W 122°17'0 0.0
2017-Jan-18 02:28N 37°47' W 122°17'0 0.0
2017-Jan-18 01:30N 37°47' W 122°17'2 2.3
2017-Jan-18 00:34N 37°48' W 122°20'2 1.6
2017-Jan-17 23:32N 37°47' W 122°22'3 3.3
2017-Jan-17 22:32N 37°47' W 122°17'0 0.0
2017-Jan-17 21:33N 37°47' W 122°17'  
Track history (hours):
 
Tides and Currents Weather Stations Pressure Air Temp Water Temp Dewpoint Dewpoint Depression Visibility Wind Speed Wind Dir Waves Ship Positions

Oski

Owner: BLUE & GOLD FLEET, SAN FRANCISCO, CA. More information available from US FCC via Universal Licensing System and Coast Guard Vessel Documentation Center.

Last reported at 2017-Jan-19 00:33 UTC. Time now 2017-Jan-23 00:31 UTC.
Position N 37°49' W 122°25'.

Length 24 m; draft 2 m.

Type: Passenger vessel. MMSI: 366985320.

Date/timePositionNaut miles runAvg speedWind from/ knotsBaromVisibWave heightAir tempDewpointWater temp
2017-Jan-19 00:33N 37°49' W 122°25'3 3.2
2017-Jan-18 23:33N 37°48' W 122°21'3 2.6
2017-Jan-18 22:34N 37°47' W 122°17'2 2.2
2017-Jan-18 21:33N 37°48' W 122°20'2 2.2
2017-Jan-18 20:33N 37°47' W 122°17'0 0.0
2017-Jan-18 19:33N 37°47' W 122°17'0 0.0
2017-Jan-18 18:30N 37°47' W 122°17'0 0.0
2017-Jan-18 17:27N 37°47' W 122°17'0 0.0
2017-Jan-18 16:31N 37°47' W 122°17'0 0.0
2017-Jan-18 15:32N 37°47' W 122°17'0 0.0
2017-Jan-18 14:23N 37°47' W 122°17'0 0.0
2017-Jan-18 13:24N 37°47' W 122°17'0 0.0
2017-Jan-18 12:30N 37°47' W 122°17'0 0.0
2017-Jan-18 11:27N 37°47' W 122°17'0 0.0
2017-Jan-18 10:32N 37°47' W 122°17'0 0.0
2017-Jan-18 09:31N 37°47' W 122°17'0 0.0
2017-Jan-18 08:32N 37°47' W 122°17'0 0.0
2017-Jan-18 07:31N 37°47' W 122°17'0 0.0
2017-Jan-18 06:31N 37°47' W 122°17'0 0.0
2017-Jan-18 05:33N 37°47' W 122°17'0 0.0
2017-Jan-18 04:28N 37°47' W 122°17'0 0.0
2017-Jan-18 03:33N 37°47' W 122°17'0 0.0
2017-Jan-18 02:28N 37°47' W 122°17'0 0.0
2017-Jan-18 01:30N 37°47' W 122°17'2 2.3
2017-Jan-18 00:34N 37°48' W 122°20'2 1.6
2017-Jan-17 23:32N 37°47' W 122°22'3 3.3
2017-Jan-17 22:32N 37°47' W 122°17'0 0.0
2017-Jan-17 21:33N 37°47' W 122°17'  

Dump ship's entire track history